ITY2E LICC-LIRN
Flight info
| Callsign | ITY2E |
|---|---|
| Flight time | 0h 49m |
| Altitude | 34000 |
| Route | BUDIN DCT DIRED DCT NAXES/N0368F180 T92 SOR |
| Aircraft | A320/M-SDE3FGHIRWY/LB1 |
Departure
| Time | 2026-05-06 16:44 |
|---|---|
| Airport | Catania-Fontanarossa Airport (LICC) |
Arrival
| Time | 2026-05-06 17:33 |
|---|---|
| Airport | Naples International Airport (LIRN) |
| Time | Latitude | Longitude | Altitude | Speed | Heading |
|---|---|---|---|---|---|
| 2026-05-06 16:19 | 37.46963 | 15.06473 | 51 ft | 0 kts | 19° |
| 2026-05-06 16:20 | 37.46927 | 15.06572 | 51 ft | 0 kts | 19° |
| 2026-05-06 16:35 | 37.46907 | 15.06563 | 50 ft | 4 kts | 21° |
| 2026-05-06 16:35 | 37.46882 | 15.06554 | 49 ft | 4 kts | 6° |
| 2026-05-06 16:35 | 37.46856 | 15.06556 | 49 ft | 4 kts | 330° |
| 2026-05-06 16:36 | 37.46840 | 15.06578 | 51 ft | 4 kts | 277° |
| 2026-05-06 16:36 | 37.46840 | 15.06593 | 51 ft | 1 kts | 264° |
| 2026-05-06 16:36 | 37.46840 | 15.06594 | 51 ft | 0 kts | 264° |
| 2026-05-06 16:38 | 37.46839 | 15.06582 | 51 ft | 4 kts | 263° |
| 2026-05-06 16:38 | 37.46833 | 15.06517 | 51 ft | 10 kts | 263° |
| 2026-05-06 16:38 | 37.46824 | 15.06405 | 51 ft | 15 kts | 264° |
| 2026-05-06 16:38 | 37.46811 | 15.06250 | 51 ft | 20 kts | 264° |
| 2026-05-06 16:39 | 37.46794 | 15.06050 | 51 ft | 26 kts | 264° |
| 2026-05-06 16:39 | 37.46773 | 15.05805 | 51 ft | 31 kts | 265° |
| 2026-05-06 16:39 | 37.46752 | 15.05564 | 51 ft | 26 kts | 264° |
| 2026-05-06 16:39 | 37.46734 | 15.05342 | 48 ft | 20 kts | 258° |
| 2026-05-06 16:40 | 37.46663 | 15.05248 | 49 ft | 0 kts | 223° |
| 2026-05-06 16:41 | 37.46660 | 15.05244 | 50 ft | 3 kts | 223° |
| 2026-05-06 16:42 | 37.46628 | 15.05207 | 51 ft | 9 kts | 218° |
| 2026-05-06 16:42 | 37.46566 | 15.05231 | 51 ft | 13 kts | 116° |
| 2026-05-06 16:42 | 37.46572 | 15.05361 | 51 ft | 17 kts | 84° |
| 2026-05-06 16:42 | 37.46580 | 15.05477 | 50 ft | 0 kts | 84° |
| 2026-05-06 16:43 | 37.46582 | 15.05493 | 50 ft | 9 kts | 84° |
| 2026-05-06 16:43 | 37.46610 | 15.05824 | 51 ft | 75 kts | 84° |
| 2026-05-06 16:43 | 37.46689 | 15.06746 | 52 ft | 135 kts | 84° |
| 2026-05-06 16:43 | 37.46795 | 15.08049 | 382 ft | 155 kts | 83° |
| 2026-05-06 16:44 | 37.46909 | 15.09458 | 947 ft | 169 kts | 84° |
| 2026-05-06 16:44 | 37.47049 | 15.10958 | 1578 ft | 178 kts | 84° |
| 2026-05-06 16:44 | 37.47270 | 15.12597 | 1903 ft | 203 kts | 82° |
| 2026-05-06 16:44 | 37.47544 | 15.14451 | 2338 ft | 228 kts | 81° |
| 2026-05-06 16:45 | 37.47846 | 15.16472 | 3031 ft | 242 kts | 81° |
| 2026-05-06 16:45 | 37.48158 | 15.18590 | 3904 ft | 248 kts | 81° |
| 2026-05-06 16:45 | 37.48472 | 15.20758 | 4788 ft | 255 kts | 83° |
| 2026-05-06 16:45 | 37.48789 | 15.22984 | 5630 ft | 262 kts | 82° |
| 2026-05-06 16:46 | 37.49113 | 15.25260 | 6508 ft | 268 kts | 82° |
| 2026-05-06 16:46 | 37.49750 | 15.27534 | 7167 ft | 287 kts | 62° |
| 2026-05-06 16:46 | 37.51149 | 15.29369 | 7937 ft | 297 kts | 32° |
| 2026-05-06 16:46 | 37.53095 | 15.30229 | 8807 ft | 301 kts | 4° |
| 2026-05-06 16:47 | 37.55179 | 15.29992 | 9716 ft | 303 kts | 348° |
| 2026-05-06 16:47 | 37.57277 | 15.29501 | 10364 ft | 316 kts | 347° |
| 2026-05-06 16:47 | 37.59509 | 15.28957 | 10687 ft | 337 kts | 347° |
| 2026-05-06 16:47 | 37.61855 | 15.28383 | 11303 ft | 347 kts | 347° |
| 2026-05-06 16:48 | 37.64249 | 15.27804 | 12045 ft | 353 kts | 347° |
| 2026-05-06 16:48 | 37.66676 | 15.27226 | 12839 ft | 357 kts | 346° |
| 2026-05-06 16:48 | 37.69132 | 15.26647 | 13607 ft | 361 kts | 346° |
| 2026-05-06 16:48 | 37.71616 | 15.26065 | 14319 ft | 365 kts | 346° |
| 2026-05-06 16:49 | 37.74126 | 15.25479 | 15008 ft | 368 kts | 346° |
| 2026-05-06 16:49 | 37.76657 | 15.24887 | 15697 ft | 372 kts | 346° |
| 2026-05-06 16:49 | 37.79212 | 15.24291 | 16382 ft | 375 kts | 346° |
| 2026-05-06 16:49 | 37.81790 | 15.23687 | 17061 ft | 379 kts | 345° |
| 2026-05-06 16:50 | 37.84393 | 15.23074 | 17747 ft | 382 kts | 345° |
| 2026-05-06 16:50 | 37.87017 | 15.22455 | 18403 ft | 386 kts | 345° |
| 2026-05-06 16:50 | 37.89665 | 15.21830 | 19022 ft | 389 kts | 345° |
| 2026-05-06 16:50 | 37.92331 | 15.21199 | 19624 ft | 391 kts | 345° |
| 2026-05-06 16:51 | 37.95015 | 15.20563 | 20233 ft | 393 kts | 345° |
| 2026-05-06 16:51 | 37.97712 | 15.19924 | 20853 ft | 395 kts | 345° |
| 2026-05-06 16:51 | 38.00421 | 15.19281 | 21476 ft | 398 kts | 345° |
| 2026-05-06 16:51 | 38.03146 | 15.18634 | 22099 ft | 400 kts | 345° |
| 2026-05-06 16:52 | 38.05891 | 15.17981 | 22661 ft | 403 kts | 344° |
| 2026-05-06 16:52 | 38.08659 | 15.17322 | 23247 ft | 405 kts | 344° |
| 2026-05-06 16:52 | 38.11436 | 15.16662 | 23805 ft | 407 kts | 345° |
| 2026-05-06 16:52 | 38.14227 | 15.16000 | 24296 ft | 409 kts | 344° |
| 2026-05-06 16:53 | 38.17023 | 15.15335 | 24801 ft | 409 kts | 344° |
| 2026-05-06 16:53 | 38.19829 | 15.14666 | 25266 ft | 411 kts | 344° |
| 2026-05-06 16:53 | 38.22646 | 15.13992 | 25705 ft | 413 kts | 344° |
| 2026-05-06 16:53 | 38.25478 | 15.13314 | 26124 ft | 416 kts | 344° |
| 2026-05-06 16:54 | 38.28329 | 15.12632 | 26542 ft | 418 kts | 345° |
| 2026-05-06 16:54 | 38.31196 | 15.11948 | 26949 ft | 420 kts | 345° |
| 2026-05-06 16:54 | 38.34077 | 15.11259 | 27337 ft | 423 kts | 345° |
| 2026-05-06 16:54 | 38.36974 | 15.10565 | 27758 ft | 425 kts | 345° |
| 2026-05-06 16:55 | 38.39895 | 15.09864 | 28105 ft | 429 kts | 345° |
| 2026-05-06 16:55 | 38.42836 | 15.09157 | 28461 ft | 431 kts | 345° |
| 2026-05-06 16:55 | 38.45791 | 15.08446 | 28831 ft | 434 kts | 345° |
| 2026-05-06 16:55 | 38.48695 | 15.07455 | 29185 ft | 431 kts | 336° |
| 2026-05-06 16:56 | 38.51486 | 15.06035 | 29534 ft | 432 kts | 334° |
| 2026-05-06 16:56 | 38.54286 | 15.04594 | 29870 ft | 435 kts | 334° |
| 2026-05-06 16:56 | 38.57061 | 15.03175 | 30170 ft | 437 kts | 334° |
| 2026-05-06 16:56 | 38.59890 | 15.01732 | 30462 ft | 439 kts | 334° |
| 2026-05-06 16:57 | 38.62729 | 15.00281 | 30746 ft | 441 kts | 334° |
| 2026-05-06 16:57 | 38.65583 | 14.98821 | 31013 ft | 443 kts | 334° |
| 2026-05-06 16:57 | 38.68449 | 14.97352 | 31283 ft | 444 kts | 334° |
| 2026-05-06 16:57 | 38.71327 | 14.95875 | 31549 ft | 445 kts | 334° |
| 2026-05-06 16:58 | 38.74204 | 14.94396 | 31805 ft | 447 kts | 334° |
| 2026-05-06 16:58 | 38.77093 | 14.92908 | 32057 ft | 447 kts | 333° |
| 2026-05-06 16:58 | 38.79969 | 14.91429 | 32482 ft | 444 kts | 332° |
| 2026-05-06 16:58 | 38.82822 | 14.89964 | 32898 ft | 441 kts | 332° |
| 2026-05-06 16:59 | 38.85659 | 14.88507 | 33282 ft | 439 kts | 332° |
| 2026-05-06 16:59 | 38.88491 | 14.87043 | 33620 ft | 438 kts | 332° |
| 2026-05-06 16:59 | 38.91312 | 14.85581 | 33916 ft | 437 kts | 332° |
| 2026-05-06 17:00 | 38.96879 | 14.82709 | 33975 ft | 432 kts | 332° |
| 2026-05-06 17:00 | 39.02537 | 14.79762 | 33979 ft | 444 kts | 332° |
| 2026-05-06 17:01 | 39.08290 | 14.76772 | 33978 ft | 447 kts | 332° |
| 2026-05-06 17:01 | 39.14079 | 14.73770 | 33983 ft | 449 kts | 332° |
| 2026-05-06 17:02 | 39.19885 | 14.70747 | 33974 ft | 450 kts | 332° |
| 2026-05-06 17:02 | 39.25688 | 14.67721 | 33979 ft | 450 kts | 332° |
| 2026-05-06 17:03 | 39.31453 | 14.64710 | 33984 ft | 450 kts | 332° |
| 2026-05-06 17:03 | 39.37307 | 14.61642 | 33975 ft | 451 kts | 332° |
| 2026-05-06 17:04 | 39.43091 | 14.58599 | 33969 ft | 452 kts | 332° |
| 2026-05-06 17:04 | 39.48929 | 14.55524 | 33973 ft | 453 kts | 332° |
| 2026-05-06 17:05 | 39.54699 | 14.52504 | 33981 ft | 435 kts | 334° |
| 2026-05-06 17:05 | 39.60609 | 14.50847 | 33984 ft | 438 kts | 346° |
| 2026-05-06 17:05 | 39.63636 | 14.50318 | 33836 ft | 439 kts | 346° |
| 2026-05-06 17:06 | 39.66658 | 14.49788 | 33561 ft | 438 kts | 346° |
| 2026-05-06 17:06 | 39.69683 | 14.49256 | 33287 ft | 439 kts | 346° |
| 2026-05-06 17:06 | 39.72696 | 14.48727 | 32778 ft | 435 kts | 346° |
| 2026-05-06 17:06 | 39.75689 | 14.48203 | 32178 ft | 433 kts | 346° |
| 2026-05-06 17:07 | 39.78666 | 14.47684 | 31601 ft | 431 kts | 346° |
| 2026-05-06 17:07 | 39.81635 | 14.47164 | 31008 ft | 429 kts | 346° |
| 2026-05-06 17:07 | 39.84592 | 14.46641 | 30427 ft | 428 kts | 346° |
| 2026-05-06 17:07 | 39.87540 | 14.46117 | 29813 ft | 427 kts | 346° |
| 2026-05-06 17:08 | 39.90477 | 14.45593 | 29245 ft | 424 kts | 346° |
| 2026-05-06 17:08 | 39.93385 | 14.45072 | 28695 ft | 420 kts | 346° |
| 2026-05-06 17:08 | 39.96273 | 14.44558 | 28143 ft | 417 kts | 346° |
| 2026-05-06 17:08 | 39.99139 | 14.44052 | 27613 ft | 414 kts | 347° |
| 2026-05-06 17:09 | 40.01990 | 14.43553 | 27084 ft | 412 kts | 346° |
| 2026-05-06 17:09 | 40.04826 | 14.43055 | 26557 ft | 410 kts | 346° |
| 2026-05-06 17:09 | 40.07645 | 14.42558 | 26040 ft | 408 kts | 346° |
| 2026-05-06 17:09 | 40.10448 | 14.42064 | 25554 ft | 405 kts | 346° |
| 2026-05-06 17:10 | 40.13235 | 14.41569 | 25058 ft | 403 kts | 346° |
| 2026-05-06 17:10 | 40.16009 | 14.41073 | 24578 ft | 401 kts | 346° |
| 2026-05-06 17:10 | 40.18766 | 14.40580 | 24099 ft | 399 kts | 347° |
| 2026-05-06 17:10 | 40.21510 | 14.40089 | 23627 ft | 397 kts | 347° |
| 2026-05-06 17:11 | 40.24242 | 14.39600 | 23111 ft | 394 kts | 347° |
| 2026-05-06 17:11 | 40.26948 | 14.39119 | 22636 ft | 391 kts | 347° |
| 2026-05-06 17:11 | 40.29630 | 14.38644 | 22182 ft | 387 kts | 347° |
| 2026-05-06 17:11 | 40.32250 | 14.38178 | 21722 ft | 384 kts | 347° |
| 2026-05-06 17:12 | 40.34890 | 14.37705 | 21245 ft | 381 kts | 347° |
| 2026-05-06 17:12 | 40.37509 | 14.37236 | 20780 ft | 379 kts | 347° |
| 2026-05-06 17:12 | 40.40114 | 14.36767 | 20303 ft | 377 kts | 347° |
| 2026-05-06 17:12 | 40.42708 | 14.36300 | 19829 ft | 376 kts | 347° |
| 2026-05-06 17:13 | 40.45298 | 14.35834 | 19362 ft | 375 kts | 347° |
| 2026-05-06 17:13 | 40.47883 | 14.35370 | 18870 ft | 375 kts | 347° |
| 2026-05-06 17:13 | 40.50468 | 14.34904 | 18392 ft | 375 kts | 347° |
| 2026-05-06 17:13 | 40.53056 | 14.34452 | 17865 ft | 375 kts | 351° |
| 2026-05-06 17:14 | 40.55672 | 14.34526 | 17388 ft | 379 kts | 5° |
| 2026-05-06 17:14 | 40.58223 | 14.35436 | 16907 ft | 382 kts | 21° |
| 2026-05-06 17:14 | 40.60537 | 14.37140 | 16458 ft | 382 kts | 36° |
| 2026-05-06 17:14 | 40.62479 | 14.39503 | 16019 ft | 380 kts | 47° |
| 2026-05-06 17:15 | 40.64264 | 14.42065 | 15570 ft | 379 kts | 47° |
| 2026-05-06 17:15 | 40.66043 | 14.44618 | 15123 ft | 377 kts | 47° |
| 2026-05-06 17:15 | 40.67820 | 14.47161 | 14675 ft | 376 kts | 47° |
| 2026-05-06 17:15 | 40.69584 | 14.49684 | 14239 ft | 373 kts | 47° |
| 2026-05-06 17:16 | 40.71322 | 14.52218 | 13781 ft | 371 kts | 49° |
| 2026-05-06 17:16 | 40.73026 | 14.54761 | 13306 ft | 369 kts | 49° |
| 2026-05-06 17:16 | 40.74696 | 14.57289 | 13039 ft | 359 kts | 49° |
| 2026-05-06 17:16 | 40.76304 | 14.59734 | 12910 ft | 346 kts | 49° |
| 2026-05-06 17:17 | 40.77817 | 14.62009 | 12769 ft | 323 kts | 46° |
| 2026-05-06 17:17 | 40.79573 | 14.63653 | 12639 ft | 299 kts | 20° |
| 2026-05-06 17:17 | 40.81542 | 14.64175 | 12321 ft | 283 kts | 354° |
| 2026-05-06 17:17 | 40.83403 | 14.63605 | 12120 ft | 274 kts | 330° |
| 2026-05-06 17:18 | 40.85028 | 14.62338 | 11856 ft | 270 kts | 324° |
| 2026-05-06 17:18 | 40.86611 | 14.61031 | 11570 ft | 267 kts | 324° |
| 2026-05-06 17:18 | 40.88262 | 14.59914 | 11290 ft | 270 kts | 343° |
| 2026-05-06 17:18 | 40.90124 | 14.59879 | 11010 ft | 272 kts | 14° |
| 2026-05-06 17:19 | 40.91753 | 14.61091 | 10847 ft | 272 kts | 46° |
| 2026-05-06 17:19 | 40.92861 | 14.63126 | 10697 ft | 274 kts | 59° |
| 2026-05-06 17:19 | 40.93864 | 14.65274 | 10534 ft | 274 kts | 59° |
| 2026-05-06 17:19 | 40.94858 | 14.67419 | 10368 ft | 272 kts | 59° |
| 2026-05-06 17:20 | 40.95848 | 14.69555 | 10212 ft | 272 kts | 59° |
| 2026-05-06 17:20 | 40.96838 | 14.71690 | 10050 ft | 271 kts | 59° |
| 2026-05-06 17:20 | 40.97822 | 14.73806 | 9883 ft | 269 kts | 59° |
| 2026-05-06 17:20 | 40.98802 | 14.75907 | 9723 ft | 269 kts | 59° |
| 2026-05-06 17:21 | 40.99789 | 14.78021 | 9563 ft | 270 kts | 59° |
| 2026-05-06 17:21 | 41.00774 | 14.80131 | 9405 ft | 269 kts | 59° |
| 2026-05-06 17:21 | 41.01755 | 14.82230 | 9250 ft | 268 kts | 59° |
| 2026-05-06 17:21 | 41.02740 | 14.84337 | 9097 ft | 268 kts | 57° |
| 2026-05-06 17:22 | 41.04002 | 14.86105 | 8937 ft | 262 kts | 27° |
| 2026-05-06 17:22 | 41.05676 | 14.86711 | 8783 ft | 245 kts | 355° |
| 2026-05-06 17:22 | 41.07262 | 14.86130 | 8631 ft | 235 kts | 325° |
| 2026-05-06 17:22 | 41.08651 | 14.85000 | 8483 ft | 235 kts | 324° |
| 2026-05-06 17:23 | 41.10041 | 14.83858 | 8319 ft | 235 kts | 324° |
| 2026-05-06 17:23 | 41.11313 | 14.82550 | 8161 ft | 228 kts | 303° |
| 2026-05-06 17:23 | 41.11946 | 14.80682 | 8027 ft | 221 kts | 274° |
| 2026-05-06 17:23 | 41.11797 | 14.78706 | 7903 ft | 216 kts | 246° |
| 2026-05-06 17:24 | 41.11080 | 14.77015 | 7775 ft | 206 kts | 237° |
| 2026-05-06 17:24 | 41.10339 | 14.75439 | 7655 ft | 197 kts | 237° |
| 2026-05-06 17:24 | 41.09620 | 14.73913 | 7543 ft | 195 kts | 237° |
| 2026-05-06 17:24 | 41.08901 | 14.72383 | 7438 ft | 195 kts | 237° |
| 2026-05-06 17:25 | 41.08425 | 14.71372 | 7362 ft | 195 kts | 237° |
| 2026-05-06 17:25 | 41.07479 | 14.69355 | 7215 ft | 193 kts | 237° |
| 2026-05-06 17:25 | 41.06767 | 14.67837 | 7108 ft | 194 kts | 237° |
| 2026-05-06 17:25 | 41.06053 | 14.66315 | 6994 ft | 195 kts | 237° |
| 2026-05-06 17:26 | 41.05335 | 14.64783 | 6780 ft | 195 kts | 237° |
| 2026-05-06 17:26 | 41.04632 | 14.63282 | 6538 ft | 190 kts | 236° |
| 2026-05-06 17:26 | 41.04175 | 14.62304 | 6350 ft | 187 kts | 237° |
| 2026-05-06 17:26 | 41.03497 | 14.60849 | 6073 ft | 184 kts | 236° |
| 2026-05-06 17:27 | 41.02831 | 14.59423 | 5802 ft | 180 kts | 237° |
| 2026-05-06 17:27 | 41.02177 | 14.58020 | 5539 ft | 178 kts | 236° |
| 2026-05-06 17:27 | 41.01535 | 14.56646 | 5295 ft | 172 kts | 237° |
| 2026-05-06 17:27 | 41.00901 | 14.55290 | 5030 ft | 174 kts | 237° |
| 2026-05-06 17:28 | 41.00267 | 14.53933 | 4785 ft | 173 kts | 237° |
| 2026-05-06 17:28 | 40.99635 | 14.52581 | 4517 ft | 171 kts | 237° |
| 2026-05-06 17:28 | 40.99017 | 14.51260 | 4259 ft | 166 kts | 237° |
| 2026-05-06 17:28 | 40.98411 | 14.49963 | 4014 ft | 165 kts | 238° |
| 2026-05-06 17:29 | 40.97808 | 14.48677 | 3792 ft | 163 kts | 237° |
| 2026-05-06 17:29 | 40.97217 | 14.47415 | 3541 ft | 160 kts | 237° |
| 2026-05-06 17:29 | 40.96638 | 14.46178 | 3319 ft | 157 kts | 238° |
| 2026-05-06 17:29 | 40.96071 | 14.44969 | 3083 ft | 150 kts | 237° |
| 2026-05-06 17:30 | 40.95536 | 14.43827 | 2867 ft | 142 kts | 238° |
| 2026-05-06 17:30 | 40.95027 | 14.42742 | 2685 ft | 133 kts | 238° |
| 2026-05-06 17:30 | 40.94536 | 14.41696 | 2483 ft | 136 kts | 238° |
| 2026-05-06 17:30 | 40.94045 | 14.40650 | 2284 ft | 131 kts | 239° |
| 2026-05-06 17:31 | 40.93563 | 14.39624 | 2080 ft | 134 kts | 239° |
| 2026-05-06 17:31 | 40.93074 | 14.38582 | 1881 ft | 133 kts | 238° |
| 2026-05-06 17:31 | 40.92592 | 14.37557 | 1691 ft | 130 kts | 239° |
| 2026-05-06 17:31 | 40.92114 | 14.36540 | 1494 ft | 131 kts | 238° |
| 2026-05-06 17:32 | 40.91634 | 14.35519 | 1286 ft | 130 kts | 238° |
| 2026-05-06 17:32 | 40.91156 | 14.34503 | 1104 ft | 130 kts | 237° |
| 2026-05-06 17:32 | 40.90694 | 14.33482 | 910 ft | 128 kts | 238° |
| 2026-05-06 17:32 | 40.90225 | 14.32461 | 830 ft | 134 kts | 236° |
| 2026-05-06 17:33 | 40.89744 | 14.31423 | 645 ft | 131 kts | 237° |
| 2026-05-06 17:33 | 40.89245 | 14.30407 | 439 ft | 136 kts | 236° |
| 2026-05-06 17:33 | 40.88757 | 14.29384 | 261 ft | 117 kts | 239° |
| 2026-05-06 17:33 | 40.88570 | 14.28990 | 269 ft | 20 kts | 228° |
| 2026-05-06 17:34 | 40.88492 | 14.28843 | 273 ft | 20 kts | 238° |
| 2026-05-06 17:34 | 40.88401 | 14.28774 | 275 ft | 18 kts | 150° |
| 2026-05-06 17:34 | 40.88315 | 14.28849 | 275 ft | 0 kts | 147° |
| 2026-05-06 17:34 | 40.88276 | 14.28881 | 276 ft | 14 kts | 149° |
| 2026-05-06 17:35 | 40.88205 | 14.28882 | 277 ft | 11 kts | 235° |
| 2026-05-06 17:35 | 40.88150 | 14.28787 | 279 ft | 15 kts | 233° |
| 2026-05-06 17:35 | 40.88077 | 14.28659 | 282 ft | 19 kts | 233° |
| 2026-05-06 17:36 | 40.88054 | 14.28403 | 287 ft | 9 kts | 269° |